Flight Track Log - Related Links

Times and Time Zones

All times are in EDT time to prevent confusion due to time zone crossing. See the EJA951 flight status page for this flight to view local times or setup timezone preferences in your user account.

Time Position Orientation Groundspeed Altitude Reporting Facility
EDT Latitude Longitude Course Direction KTS MPH feet Rate Location/Type
Thu 11:17:55 AM 42.4667 -71.3000 246° West 175 201 1,000  Level KA90
Thu 11:19:18 AM 42.4333 -71.4000 246° West 228 262 5,000 3,171 Climbing KA90
Thu 11:21:08 AM 42.3864 -71.5489 247° West 248 285 11,200 3,388 Climbing Boston Center
Thu 11:22:08 AM 42.3644 -71.6589 255° West 269 310 14,600 2,400 Climbing Boston Center
Thu 11:23:08 AM 42.3464 -71.7603 256° West 288 331 16,000 700 Climbing Boston Center
Thu 11:24:08 AM 42.3200 -71.8981 256° West 325 374 16,000  Level Boston Center
Thu 11:25:08 AM 42.2933 -72.0358 255° West 368 423 16,000  Level Boston Center
Thu 11:26:08 AM 42.2708 -72.1483 255° West 368 423 16,000  Level Boston Center
Thu 11:27:08 AM 42.2439 -72.2914 256° West 358 412 16,000  Level Boston Center
Thu 11:28:08 AM 42.2211 -72.4064 255° West 358 412 16,000  Level Boston Center
Thu 11:29:08 AM 42.1961 -72.5467 257° West 358 412 16,000  Level Boston Center
Thu 11:30:08 AM 42.1731 -72.6614 255° West 358 412 16,000  Level Boston Center
Thu 11:31:08 AM 42.1561 -72.7958 260° West 358 412 16,000  Level Boston Center
Thu 11:32:08 AM 42.1469 -72.9497 265° West 368 423 16,000  Level Boston Center
Thu 11:33:08 AM 42.1403 -73.0728 266° West 373 429 16,000  Level Boston Center
Thu 11:34:08 AM 42.1289 -73.2239 264° West 373 429 16,000 -200 Level Boston Center
Thu 11:35:08 AM 42.1172 -73.3636 264° West 373 429 15,600 -650 Descending Boston Center
Thu 11:36:08 AM 42.1100 -73.4867 266° West 373 429 14,700 -800 Descending Boston Center
Thu 11:37:08 AM 42.0983 -73.6208 263° West 368 423 14,000 -400 Descending Boston Center
Thu 11:38:08 AM 42.0883 -73.7633 265° West 362 417 13,900 -50 Descending Boston Center
Thu 11:39:08 AM 42.0783 -73.9003 264° West 369 425 13,900  Level Boston Center
Thu 11:40:08 AM 42.0683 -74.0342 264° West 369 425 13,900 -50 Level Boston Center
Thu 11:41:08 AM 42.0331 -74.1647 250° West 369 425 13,800 -750 Descending Boston Center
Thu 11:42:08 AM 41.9567 -74.2436 218° Southwest 375 432 12,400 -1,450 Descending Boston Center
Thu 11:43:08 AM 41.8658 -74.3275 215° Southwest 380 437 10,900 -1,250 Descending Boston Center
Thu 11:44:08 AM 41.8042 -74.3869 216° Southwest 335 386 9,900 -1,000 Descending Boston Center
Thu 11:45:08 AM 41.7386 -74.4461 214° Southwest 283 326 8,900 -1,000 Descending Boston Center
Thu 11:46:08 AM 41.6856 -74.4972 216° Southwest 266 306 7,900 -950 Descending Boston Center
Thu 11:47:08 AM 41.6178 -74.5533 212° Southwest 266 306 7,000 -850 Descending Boston Center
Thu 11:48:08 AM 41.5531 -74.5650 188° South 265 305 6,200 -339 Descending Boston Center
Thu 11:50:05 AM 41.4000 -74.6000 190° South 264 304 6,000 -70 Descending New York TRACON
Thu 11:51:00 AM 41.3333 -74.6000 180° South 268 308 6,000 -209 Level New York TRACON
Thu 11:52:00 AM 41.2667 -74.6167 191° South 275 316 5,600 -650 Descending New York TRACON
Thu 11:53:00 AM 41.1833 -74.6167 180° South 260 299 4,700 -800 Descending New York TRACON
Thu 11:54:00 AM 41.1167 -74.6333 191° South 265 305 4,000 -350 Descending New York TRACON
Thu 11:55:00 AM 41.0500 -74.6000 159° South 278 320 4,000 -53 Level New York TRACON
Thu 11:55:54 AM 41.0500 -74.5167 90° East 265 305 3,900 -450 Descending New York TRACON
Thu 11:57:00 AM 41.0500 -74.4167 90° East 261 300 3,100 -381 Descending New York TRACON
Thu 11:58:00 AM 41.0500 -74.3167 90° East 229 264 3,100 -50 Level New York TRACON
Thu 11:59:00 AM 41.0333 -74.2333 105° East 233 268 3,000 -200 Descending New York TRACON
Thu 12:00:00 PM 41.0333 -74.1667 90° East 226 260 2,700 -500 Descending New York TRACON
Thu 12:01:00 PM 41.0000 -74.1000 124° Southeast 210 242 2,000 -368 Descending New York TRACON
Thu 12:01:54 PM 40.9667 -74.0500 114° Southeast 184 212 2,000 -367 Level New York TRACON
Thu 12:02:00 PM 40.9162 -74.0781 114° Southeast  Level Estimated
Thu 12:04:00 PM 40.8833 -74.0333 171° South 147 169 900  Level New York TRACON
Thu 12:05:00 PM 40.8500 -74.0500 180° South  Level FlightAware Approximate

Login

Don't have an account? Register now (free) for customized features, flight alerts, and more!